sensor_id;sensor_type;location;lat;lon;timestamp;temperature;humidity
36002;DHT22;22070;50.922;5.430;2023-09-19T00:00:30;16.20;99.90
36002;DHT22;22070;50.922;5.430;2023-09-19T00:02:56;16.20;99.90
36002;DHT22;22070;50.922;5.430;2023-09-19T00:05:23;16.20;99.90
36002;DHT22;22070;50.922;5.430;2023-09-19T00:07:50;16.10;99.90
36002;DHT22;22070;50.922;5.430;2023-09-19T00:10:16;16.10;99.90
36002;DHT22;22070;50.922;5.430;2023-09-19T00:12:44;16.10;99.90
36002;DHT22;22070;50.922;5.430;2023-09-19T00:15:10;16.10;99.90
36002;DHT22;22070;50.922;5.430;2023-09-19T00:17:36;16.00;99.90
36002;DHT22;22070;50.922;5.430;2023-09-19T00:20:03;16.00;99.90
36002;DHT22;22070;50.922;5.430;2023-09-19T00:22:32;16.00;99.90
36002;DHT22;22070;50.922;5.430;2023-09-19T00:24:57;16.00;99.90
36002;DHT22;22070;50.922;5.430;2023-09-19T00:27:23;16.00;99.90
36002;DHT22;22070;50.922;5.430;2023-09-19T00:29:48;15.90;99.90
36002;DHT22;22070;50.922;5.430;2023-09-19T00:32:14;16.00;99.90
36002;DHT22;22070;50.922;5.430;2023-09-19T00:34:39;16.00;99.90
36002;DHT22;22070;50.922;5.430;2023-09-19T00:37:05;15.90;99.90
36002;DHT22;22070;50.922;5.430;2023-09-19T00:39:30;16.00;99.90
36002;DHT22;22070;50.922;5.430;2023-09-19T00:41:57;16.00;99.90
36002;DHT22;22070;50.922;5.430;2023-09-19T00:44:22;16.00;99.90
36002;DHT22;22070;50.922;5.430;2023-09-19T00:46:48;16.00;99.90
36002;DHT22;22070;50.922;5.430;2023-09-19T00:49:15;16.10;99.90
36002;DHT22;22070;50.922;5.430;2023-09-19T00:51:41;15.90;99.90
36002;DHT22;22070;50.922;5.430;2023-09-19T00:54:11;15.90;99.90
36002;DHT22;22070;50.922;5.430;2023-09-19T00:56:38;16.00;99.90
36002;DHT22;22070;50.922;5.430;2023-09-19T00:59:05;16.00;99.90
36002;DHT22;22070;50.922;5.430;2023-09-19T01:01:31;15.90;99.90
36002;DHT22;22070;50.922;5.430;2023-09-19T01:03:56;15.90;99.90
36002;DHT22;22070;50.922;5.430;2023-09-19T01:06:22;15.90;99.90
36002;DHT22;22070;50.922;5.430;2023-09-19T01:08:48;15.90;99.90
36002;DHT22;22070;50.922;5.430;2023-09-19T01:11:28;15.70;99.90
36002;DHT22;22070;50.922;5.430;2023-09-19T01:14:00;15.80;99.90
36002;DHT22;22070;50.922;5.430;2023-09-19T01:16:32;15.80;99.90
36002;DHT22;22070;50.922;5.430;2023-09-19T01:19:07;15.80;99.90
36002;DHT22;22070;50.922;5.430;2023-09-19T01:21:42;15.80;99.90
36002;DHT22;22070;50.922;5.430;2023-09-19T01:29:41;15.90;99.90
36002;DHT22;22070;50.922;5.430;2023-09-19T01:32:09;15.80;99.90
36002;DHT22;22070;50.922;5.430;2023-09-19T01:34:48;15.80;99.90
36002;DHT22;22070;50.922;5.430;2023-09-19T01:37:14;15.80;99.90
36002;DHT22;22070;50.922;5.430;2023-09-19T01:39:43;15.90;99.90
36002;DHT22;22070;50.922;5.430;2023-09-19T01:42:15;15.80;99.90
36002;DHT22;22070;50.922;5.430;2023-09-19T01:47:18;15.70;99.90
36002;DHT22;22070;50.922;5.430;2023-09-19T01:49:50;15.70;99.90
36002;DHT22;22070;50.922;5.430;2023-09-19T01:52:21;15.80;99.90
36002;DHT22;22070;50.922;5.430;2023-09-19T01:54:48;15.80;99.90
36002;DHT22;22070;50.922;5.430;2023-09-19T01:57:26;15.80;99.90
36002;DHT22;22070;50.922;5.430;2023-09-19T01:59:56;15.70;99.90
36002;DHT22;22070;50.922;5.430;2023-09-19T02:02:22;15.70;99.90
36002;DHT22;22070;50.922;5.430;2023-09-19T02:04:48;15.60;99.90
36002;DHT22;22070;50.922;5.430;2023-09-19T02:07:16;15.50;99.90
36002;DHT22;22070;50.922;5.430;2023-09-19T02:09:42;15.50;99.90
36002;DHT22;22070;50.922;5.430;2023-09-19T02:12:11;15.60;99.90
36002;DHT22;22070;50.922;5.430;2023-09-19T02:14:36;15.60;99.90
36002;DHT22;22070;50.922;5.430;2023-09-19T02:17:02;15.60;99.90
36002;DHT22;22070;50.922;5.430;2023-09-19T02:19:36;15.60;99.90
36002;DHT22;22070;50.922;5.430;2023-09-19T02:22:04;15.60;99.90
36002;DHT22;22070;50.922;5.430;2023-09-19T02:24:33;15.50;99.90
36002;DHT22;22070;50.922;5.430;2023-09-19T02:26:58;15.50;99.90
36002;DHT22;22070;50.922;5.430;2023-09-19T02:29:25;15.50;99.90
36002;DHT22;22070;50.922;5.430;2023-09-19T02:31:52;15.50;99.90
36002;DHT22;22070;50.922;5.430;2023-09-19T02:34:18;15.60;99.90
36002;DHT22;22070;50.922;5.430;2023-09-19T02:36:44;15.60;99.90
36002;DHT22;22070;50.922;5.430;2023-09-19T02:39:10;15.60;99.90
36002;DHT22;22070;50.922;5.430;2023-09-19T02:41:36;15.50;99.90
36002;DHT22;22070;50.922;5.430;2023-09-19T02:44:02;15.50;99.90
36002;DHT22;22070;50.922;5.430;2023-09-19T02:46:28;15.60;99.90
36002;DHT22;22070;50.922;5.430;2023-09-19T02:48:53;15.60;99.90
36002;DHT22;22070;50.922;5.430;2023-09-19T02:51:20;15.50;99.90
36002;DHT22;22070;50.922;5.430;2023-09-19T02:53:45;15.50;99.90
36002;DHT22;22070;50.922;5.430;2023-09-19T02:56:12;15.50;99.90
36002;DHT22;22070;50.922;5.430;2023-09-19T02:58:39;15.40;99.90
36002;DHT22;22070;50.922;5.430;2023-09-19T03:01:10;15.20;99.90
36002;DHT22;22070;50.922;5.430;2023-09-19T03:03:39;15.30;99.90
36002;DHT22;22070;50.922;5.430;2023-09-19T03:06:06;15.30;99.90
36002;DHT22;22070;50.922;5.430;2023-09-19T03:08:34;15.40;99.90
36002;DHT22;22070;50.922;5.430;2023-09-19T03:11:07;15.30;99.90
36002;DHT22;22070;50.922;5.430;2023-09-19T03:13:35;15.30;99.90
36002;DHT22;22070;50.922;5.430;2023-09-19T03:16:01;15.40;99.90
36002;DHT22;22070;50.922;5.430;2023-09-19T03:18:30;15.50;99.90
36002;DHT22;22070;50.922;5.430;2023-09-19T03:20:57;15.50;99.90
36002;DHT22;22070;50.922;5.430;2023-09-19T03:23:25;15.30;99.90
36002;DHT22;22070;50.922;5.430;2023-09-19T03:25:51;15.30;99.90
36002;DHT22;22070;50.922;5.430;2023-09-19T03:28:17;15.20;99.90
36002;DHT22;22070;50.922;5.430;2023-09-19T03:30:43;15.20;99.90
36002;DHT22;22070;50.922;5.430;2023-09-19T03:33:09;15.30;99.90
36002;DHT22;22070;50.922;5.430;2023-09-19T03:35:37;15.20;99.90
36002;DHT22;22070;50.922;5.430;2023-09-19T03:38:03;15.20;99.90
36002;DHT22;22070;50.922;5.430;2023-09-19T03:40:29;15.20;99.90
36002;DHT22;22070;50.922;5.430;2023-09-19T03:42:55;15.10;99.90
36002;DHT22;22070;50.922;5.430;2023-09-19T03:45:20;15.00;99.90
36002;DHT22;22070;50.922;5.430;2023-09-19T03:47:46;15.10;99.90
36002;DHT22;22070;50.922;5.430;2023-09-19T03:50:15;15.10;99.90
36002;DHT22;22070;50.922;5.430;2023-09-19T03:52:45;15.10;99.90
36002;DHT22;22070;50.922;5.430;2023-09-19T03:55:11;15.00;99.90
36002;DHT22;22070;50.922;5.430;2023-09-19T03:57:36;15.10;99.90
36002;DHT22;22070;50.922;5.430;2023-09-19T04:00:02;15.10;99.90
36002;DHT22;22070;50.922;5.430;2023-09-19T04:02:30;15.20;99.90
36002;DHT22;22070;50.922;5.430;2023-09-19T04:04:58;15.20;99.90
36002;DHT22;22070;50.922;5.430;2023-09-19T04:07:24;15.10;99.90
36002;DHT22;22070;50.922;5.430;2023-09-19T04:09:51;15.10;99.90
36002;DHT22;22070;50.922;5.430;2023-09-19T04:12:18;15.10;99.90
36002;DHT22;22070;50.922;5.430;2023-09-19T04:14:44;15.20;99.90
36002;DHT22;22070;50.922;5.430;2023-09-19T04:17:10;15.20;99.90
36002;DHT22;22070;50.922;5.430;2023-09-19T04:19:36;15.20;99.90
36002;DHT22;22070;50.922;5.430;2023-09-19T04:22:02;15.10;99.90
36002;DHT22;22070;50.922;5.430;2023-09-19T04:24:28;15.10;99.90
36002;DHT22;22070;50.922;5.430;2023-09-19T04:26:53;15.20;99.90
36002;DHT22;22070;50.922;5.430;2023-09-19T04:29:19;15.10;99.90
36002;DHT22;22070;50.922;5.430;2023-09-19T04:31:45;15.10;99.90
36002;DHT22;22070;50.922;5.430;2023-09-19T04:34:11;15.30;99.90
36002;DHT22;22070;50.922;5.430;2023-09-19T04:36:41;15.20;99.90
36002;DHT22;22070;50.922;5.430;2023-09-19T04:39:07;15.20;99.90
36002;DHT22;22070;50.922;5.430;2023-09-19T04:41:33;15.20;99.90
36002;DHT22;22070;50.922;5.430;2023-09-19T04:43:59;15.30;99.90
36002;DHT22;22070;50.922;5.430;2023-09-19T04:46:25;15.20;99.90
36002;DHT22;22070;50.922;5.430;2023-09-19T04:48:50;15.20;99.90
36002;DHT22;22070;50.922;5.430;2023-09-19T04:51:16;15.30;99.90
36002;DHT22;22070;50.922;5.430;2023-09-19T04:53:41;15.20;99.90
36002;DHT22;22070;50.922;5.430;2023-09-19T04:56:07;15.30;99.90
36002;DHT22;22070;50.922;5.430;2023-09-19T04:58:33;15.30;99.90
36002;DHT22;22070;50.922;5.430;2023-09-19T05:00:59;15.40;99.90
36002;DHT22;22070;50.922;5.430;2023-09-19T05:03:24;15.30;99.90
36002;DHT22;22070;50.922;5.430;2023-09-19T05:05:50;15.30;99.90
36002;DHT22;22070;50.922;5.430;2023-09-19T05:08:15;15.30;99.90
36002;DHT22;22070;50.922;5.430;2023-09-19T05:10:41;15.20;99.90
36002;DHT22;22070;50.922;5.430;2023-09-19T05:13:06;15.20;99.90
36002;DHT22;22070;50.922;5.430;2023-09-19T05:15:35;15.20;99.90
36002;DHT22;22070;50.922;5.430;2023-09-19T05:18:01;15.10;99.90
36002;DHT22;22070;50.922;5.430;2023-09-19T05:20:26;15.00;99.90
36002;DHT22;22070;50.922;5.430;2023-09-19T05:23:02;15.10;99.90
36002;DHT22;22070;50.922;5.430;2023-09-19T05:25:29;15.10;99.90
36002;DHT22;22070;50.922;5.430;2023-09-19T05:27:58;15.00;99.90
36002;DHT22;22070;50.922;5.430;2023-09-19T05:30:24;14.90;99.90
36002;DHT22;22070;50.922;5.430;2023-09-19T05:32:50;14.90;99.90
36002;DHT22;22070;50.922;5.430;2023-09-19T05:35:16;14.90;99.90
36002;DHT22;22070;50.922;5.430;2023-09-19T05:37:42;14.90;99.90
36002;DHT22;22070;50.922;5.430;2023-09-19T05:40:07;14.80;99.90
36002;DHT22;22070;50.922;5.430;2023-09-19T05:42:37;14.80;99.90
36002;DHT22;22070;50.922;5.430;2023-09-19T05:45:04;14.80;99.90
36002;DHT22;22070;50.922;5.430;2023-09-19T05:47:31;14.80;99.90
36002;DHT22;22070;50.922;5.430;2023-09-19T05:49:57;14.90;99.90
36002;DHT22;22070;50.922;5.430;2023-09-19T05:52:23;14.90;99.90
36002;DHT22;22070;50.922;5.430;2023-09-19T05:54:48;14.90;99.90
36002;DHT22;22070;50.922;5.430;2023-09-19T05:57:15;14.90;99.90
36002;DHT22;22070;50.922;5.430;2023-09-19T05:59:40;15.00;99.90
36002;DHT22;22070;50.922;5.430;2023-09-19T06:02:08;15.20;99.90
36002;DHT22;22070;50.922;5.430;2023-09-19T06:04:35;15.10;99.90
36002;DHT22;22070;50.922;5.430;2023-09-19T06:07:00;15.10;99.90
36002;DHT22;22070;50.922;5.430;2023-09-19T06:09:27;15.10;99.90
36002;DHT22;22070;50.922;5.430;2023-09-19T06:11:53;14.90;99.90
36002;DHT22;22070;50.922;5.430;2023-09-19T06:14:18;14.90;99.90
36002;DHT22;22070;50.922;5.430;2023-09-19T06:16:44;15.00;99.90
36002;DHT22;22070;50.922;5.430;2023-09-19T06:19:10;15.00;99.90
36002;DHT22;22070;50.922;5.430;2023-09-19T06:21:36;14.90;99.90
36002;DHT22;22070;50.922;5.430;2023-09-19T06:24:02;15.00;99.90
36002;DHT22;22070;50.922;5.430;2023-09-19T06:26:28;15.10;99.90
36002;DHT22;22070;50.922;5.430;2023-09-19T06:28:54;15.10;99.90
36002;DHT22;22070;50.922;5.430;2023-09-19T06:31:21;15.10;99.90
36002;DHT22;22070;50.922;5.430;2023-09-19T06:33:48;15.10;99.90
36002;DHT22;22070;50.922;5.430;2023-09-19T06:36:13;15.20;99.90
36002;DHT22;22070;50.922;5.430;2023-09-19T06:38:39;15.10;99.90
36002;DHT22;22070;50.922;5.430;2023-09-19T06:41:06;15.20;99.90
36002;DHT22;22070;50.922;5.430;2023-09-19T06:43:32;15.20;99.90
36002;DHT22;22070;50.922;5.430;2023-09-19T06:45:59;15.20;99.90
36002;DHT22;22070;50.922;5.430;2023-09-19T06:48:25;15.20;99.90
36002;DHT22;22070;50.922;5.430;2023-09-19T06:50:55;15.20;99.90
36002;DHT22;22070;50.922;5.430;2023-09-19T06:53:20;15.20;99.90
36002;DHT22;22070;50.922;5.430;2023-09-19T06:55:49;15.30;99.90
36002;DHT22;22070;50.922;5.430;2023-09-19T06:58:15;15.40;99.90
36002;DHT22;22070;50.922;5.430;2023-09-19T07:00:42;15.50;99.90
36002;DHT22;22070;50.922;5.430;2023-09-19T07:03:07;15.50;99.90
36002;DHT22;22070;50.922;5.430;2023-09-19T07:05:33;15.40;99.90
36002;DHT22;22070;50.922;5.430;2023-09-19T07:08:01;15.50;99.90
36002;DHT22;22070;50.922;5.430;2023-09-19T07:10:27;15.50;99.90
36002;DHT22;22070;50.922;5.430;2023-09-19T07:15:21;15.70;99.90
36002;DHT22;22070;50.922;5.430;2023-09-19T07:17:48;15.70;99.90
36002;DHT22;22070;50.922;5.430;2023-09-19T07:20:13;15.60;99.90
36002;DHT22;22070;50.922;5.430;2023-09-19T07:22:41;15.60;99.90
36002;DHT22;22070;50.922;5.430;2023-09-19T07:25:07;15.60;99.90
36002;DHT22;22070;50.922;5.430;2023-09-19T07:27:33;15.60;99.90
36002;DHT22;22070;50.922;5.430;2023-09-19T07:29:59;15.60;99.90
36002;DHT22;22070;50.922;5.430;2023-09-19T07:32:24;15.60;99.90
36002;DHT22;22070;50.922;5.430;2023-09-19T07:34:50;15.80;99.90
36002;DHT22;22070;50.922;5.430;2023-09-19T07:37:16;15.90;99.90
36002;DHT22;22070;50.922;5.430;2023-09-19T07:39:42;15.90;99.90
36002;DHT22;22070;50.922;5.430;2023-09-19T07:42:08;16.00;99.90
36002;DHT22;22070;50.922;5.430;2023-09-19T07:44:37;16.00;99.90
36002;DHT22;22070;50.922;5.430;2023-09-19T07:47:03;16.10;99.90
36002;DHT22;22070;50.922;5.430;2023-09-19T07:49:29;16.20;99.90
36002;DHT22;22070;50.922;5.430;2023-09-19T07:51:54;16.20;99.90
36002;DHT22;22070;50.922;5.430;2023-09-19T07:54:20;16.20;99.90
36002;DHT22;22070;50.922;5.430;2023-09-19T07:56:46;16.20;99.90
36002;DHT22;22070;50.922;5.430;2023-09-19T07:59:11;16.20;99.90
36002;DHT22;22070;50.922;5.430;2023-09-19T08:01:37;16.30;99.90
36002;DHT22;22070;50.922;5.430;2023-09-19T08:04:05;16.30;99.90
36002;DHT22;22070;50.922;5.430;2023-09-19T08:06:30;16.40;99.90
36002;DHT22;22070;50.922;5.430;2023-09-19T08:08:56;16.40;99.90
36002;DHT22;22070;50.922;5.430;2023-09-19T08:11:22;16.40;99.90
36002;DHT22;22070;50.922;5.430;2023-09-19T08:13:49;16.40;99.90
36002;DHT22;22070;50.922;5.430;2023-09-19T08:16:16;16.40;99.90
36002;DHT22;22070;50.922;5.430;2023-09-19T08:18:46;16.40;99.90
36002;DHT22;22070;50.922;5.430;2023-09-19T08:21:12;16.50;99.90
36002;DHT22;22070;50.922;5.430;2023-09-19T08:23:41;16.50;99.90
36002;DHT22;22070;50.922;5.430;2023-09-19T08:26:07;16.60;99.90
36002;DHT22;22070;50.922;5.430;2023-09-19T08:28:36;16.60;99.90
36002;DHT22;22070;50.922;5.430;2023-09-19T08:31:02;16.60;99.90
36002;DHT22;22070;50.922;5.430;2023-09-19T08:33:31;16.60;99.90
36002;DHT22;22070;50.922;5.430;2023-09-19T08:35:57;16.60;99.90
36002;DHT22;22070;50.922;5.430;2023-09-19T08:38:22;16.80;99.90
36002;DHT22;22070;50.922;5.430;2023-09-19T08:40:48;16.90;99.90
36002;DHT22;22070;50.922;5.430;2023-09-19T08:43:13;17.00;99.90
36002;DHT22;22070;50.922;5.430;2023-09-19T08:45:39;16.90;99.90
36002;DHT22;22070;50.922;5.430;2023-09-19T08:50:31;16.90;99.90
36002;DHT22;22070;50.922;5.430;2023-09-19T08:53:01;16.90;99.90
36002;DHT22;22070;50.922;5.430;2023-09-19T08:55:29;17.00;99.90
36002;DHT22;22070;50.922;5.430;2023-09-19T08:58:14;17.00;99.90
36002;DHT22;22070;50.922;5.430;2023-09-19T09:00:45;17.10;99.90
36002;DHT22;22070;50.922;5.430;2023-09-19T09:03:14;17.10;99.90
36002;DHT22;22070;50.922;5.430;2023-09-19T09:05:41;17.20;99.90
36002;DHT22;22070;50.922;5.430;2023-09-19T09:08:07;17.30;99.90
36002;DHT22;22070;50.922;5.430;2023-09-19T09:10:33;17.30;99.90
36002;DHT22;22070;50.922;5.430;2023-09-19T09:12:59;17.30;99.90
36002;DHT22;22070;50.922;5.430;2023-09-19T09:15:24;17.40;99.90
36002;DHT22;22070;50.922;5.430;2023-09-19T09:17:50;17.30;99.90
36002;DHT22;22070;50.922;5.430;2023-09-19T09:20:18;17.40;99.90
36002;DHT22;22070;50.922;5.430;2023-09-19T09:22:51;17.50;99.90
36002;DHT22;22070;50.922;5.430;2023-09-19T09:25:17;17.50;99.90
36002;DHT22;22070;50.922;5.430;2023-09-19T09:27:43;17.50;99.90
36002;DHT22;22070;50.922;5.430;2023-09-19T09:30:10;17.40;99.90
36002;DHT22;22070;50.922;5.430;2023-09-19T09:33:07;17.50;99.90
36002;DHT22;22070;50.922;5.430;2023-09-19T09:35:33;17.60;99.90
36002;DHT22;22070;50.922;5.430;2023-09-19T09:38:01;17.80;99.90
36002;DHT22;22070;50.922;5.430;2023-09-19T09:40:49;18.00;99.90
36002;DHT22;22070;50.922;5.430;2023-09-19T09:43:26;18.10;99.90
36002;DHT22;22070;50.922;5.430;2023-09-19T09:46:10;18.10;99.90
36002;DHT22;22070;50.922;5.430;2023-09-19T09:51:33;18.10;99.90
36002;DHT22;22070;50.922;5.430;2023-09-19T10:02:09;18.30;99.90
36002;DHT22;22070;50.922;5.430;2023-09-19T10:04:39;18.30;99.90
36002;DHT22;22070;50.922;5.430;2023-09-19T10:07:24;18.30;99.90
36002;DHT22;22070;50.922;5.430;2023-09-19T10:09:50;18.30;99.90
36002;DHT22;22070;50.922;5.430;2023-09-19T10:14:21;18.20;99.90
36002;DHT22;22070;50.922;5.430;2023-09-19T10:16:49;18.20;99.90
36002;DHT22;22070;50.922;5.430;2023-09-19T10:19:52;18.20;99.90
36002;DHT22;22070;50.922;5.430;2023-09-19T10:22:12;18.20;99.90
36002;DHT22;22070;50.922;5.430;2023-09-19T10:24:40;18.10;99.90
36002;DHT22;22070;50.922;5.430;2023-09-19T10:27:07;18.20;99.90
36002;DHT22;22070;50.922;5.430;2023-09-19T10:29:39;18.20;99.90
36002;DHT22;22070;50.922;5.430;2023-09-19T10:32:06;18.40;99.90
36002;DHT22;22070;50.922;5.430;2023-09-19T10:34:37;18.50;99.90
36002;DHT22;22070;50.922;5.430;2023-09-19T10:37:07;18.60;99.90
36002;DHT22;22070;50.922;5.430;2023-09-19T10:39:36;18.50;99.90
36002;DHT22;22070;50.922;5.430;2023-09-19T10:42:06;18.50;99.90
36002;DHT22;22070;50.922;5.430;2023-09-19T10:44:37;18.40;99.90
36002;DHT22;22070;50.922;5.430;2023-09-19T10:47:09;18.40;99.90
36002;DHT22;22070;50.922;5.430;2023-09-19T10:49:35;18.50;99.90
36002;DHT22;22070;50.922;5.430;2023-09-19T10:52:01;18.50;99.90
36002;DHT22;22070;50.922;5.430;2023-09-19T10:54:29;18.60;99.90
36002;DHT22;22070;50.922;5.430;2023-09-19T10:56:56;18.70;99.90
36002;DHT22;22070;50.922;5.430;2023-09-19T10:59:24;18.80;99.90
36002;DHT22;22070;50.922;5.430;2023-09-19T11:01:52;18.90;99.90
36002;DHT22;22070;50.922;5.430;2023-09-19T11:04:31;18.90;99.90
36002;DHT22;22070;50.922;5.430;2023-09-19T11:07:19;19.00;99.90
36002;DHT22;22070;50.922;5.430;2023-09-19T11:09:56;19.20;99.90
36002;DHT22;22070;50.922;5.430;2023-09-19T11:15:01;19.10;99.90
36002;DHT22;22070;50.922;5.430;2023-09-19T11:17:38;19.00;99.90
36002;DHT22;22070;50.922;5.430;2023-09-19T11:30:31;19.10;99.90
36002;DHT22;22070;50.922;5.430;2023-09-19T11:33:18;19.20;99.90
36002;DHT22;22070;50.922;5.430;2023-09-19T11:36:16;19.30;99.90
36002;DHT22;22070;50.922;5.430;2023-09-19T11:46:27;19.60;99.90
36002;DHT22;22070;50.922;5.430;2023-09-19T11:48:53;19.60;99.90
36002;DHT22;22070;50.922;5.430;2023-09-19T11:51:24;19.50;99.90
36002;DHT22;22070;50.922;5.430;2023-09-19T11:53:55;19.60;99.90
36002;DHT22;22070;50.922;5.430;2023-09-19T11:56:23;19.60;99.90
36002;DHT22;22070;50.922;5.430;2023-09-19T11:58:52;19.70;99.90
36002;DHT22;22070;50.922;5.430;2023-09-19T12:01:24;19.70;99.90
36002;DHT22;22070;50.922;5.430;2023-09-19T12:03:56;19.80;99.90
36002;DHT22;22070;50.922;5.430;2023-09-19T12:06:24;19.90;99.90
36002;DHT22;22070;50.922;5.430;2023-09-19T12:08:51;19.90;99.90
36002;DHT22;22070;50.922;5.430;2023-09-19T12:11:19;20.00;99.90
36002;DHT22;22070;50.922;5.430;2023-09-19T12:13:46;20.10;99.90
36002;DHT22;22070;50.922;5.430;2023-09-19T12:16:17;20.10;99.90
36002;DHT22;22070;50.922;5.430;2023-09-19T12:18:44;20.00;99.90
36002;DHT22;22070;50.922;5.430;2023-09-19T12:21:29;20.20;99.90
36002;DHT22;22070;50.922;5.430;2023-09-19T12:24:07;20.10;99.90
36002;DHT22;22070;50.922;5.430;2023-09-19T12:26:43;20.20;99.90
36002;DHT22;22070;50.922;5.430;2023-09-19T12:29:14;20.20;99.90
36002;DHT22;22070;50.922;5.430;2023-09-19T12:31:51;20.20;99.90
36002;DHT22;22070;50.922;5.430;2023-09-19T12:34:21;20.30;99.90
36002;DHT22;22070;50.922;5.430;2023-09-19T12:36:48;20.30;99.90
36002;DHT22;22070;50.922;5.430;2023-09-19T12:39:26;20.20;99.90
36002;DHT22;22070;50.922;5.430;2023-09-19T12:41:52;20.20;99.90
36002;DHT22;22070;50.922;5.430;2023-09-19T12:44:19;20.10;99.90
36002;DHT22;22070;50.922;5.430;2023-09-19T12:46:45;20.10;99.90
36002;DHT22;22070;50.922;5.430;2023-09-19T12:49:18;20.20;99.90
36002;DHT22;22070;50.922;5.430;2023-09-19T12:51:45;20.10;99.90
36002;DHT22;22070;50.922;5.430;2023-09-19T12:54:12;20.10;99.90
36002;DHT22;22070;50.922;5.430;2023-09-19T12:56:43;20.20;99.90
36002;DHT22;22070;50.922;5.430;2023-09-19T12:59:14;20.10;99.90
36002;DHT22;22070;50.922;5.430;2023-09-19T13:01:43;20.20;99.90
36002;DHT22;22070;50.922;5.430;2023-09-19T13:04:21;20.20;99.90
36002;DHT22;22070;50.922;5.430;2023-09-19T13:06:55;20.10;99.90
36002;DHT22;22070;50.922;5.430;2023-09-19T13:09:26;20.20;99.90
36002;DHT22;22070;50.922;5.430;2023-09-19T13:12:04;20.00;99.90
36002;DHT22;22070;50.922;5.430;2023-09-19T13:14:32;20.00;99.90
36002;DHT22;22070;50.922;5.430;2023-09-19T13:17:04;20.00;99.90
36002;DHT22;22070;50.922;5.430;2023-09-19T13:25:14;19.90;99.90
36002;DHT22;22070;50.922;5.430;2023-09-19T13:30:13;20.10;99.90
36002;DHT22;22070;50.922;5.430;2023-09-19T13:32:39;20.10;99.90
36002;DHT22;22070;50.922;5.430;2023-09-19T13:35:07;20.10;99.90
36002;DHT22;22070;50.922;5.430;2023-09-19T13:37:35;20.10;99.90
36002;DHT22;22070;50.922;5.430;2023-09-19T13:40:05;20.30;99.90
36002;DHT22;22070;50.922;5.430;2023-09-19T13:42:31;20.40;99.90
36002;DHT22;22070;50.922;5.430;2023-09-19T13:44:57;20.50;99.90
36002;DHT22;22070;50.922;5.430;2023-09-19T13:47:23;20.60;99.90
36002;DHT22;22070;50.922;5.430;2023-09-19T13:49:50;20.60;99.90
36002;DHT22;22070;50.922;5.430;2023-09-19T13:52:20;20.60;99.90
36002;DHT22;22070;50.922;5.430;2023-09-19T13:54:45;20.70;99.90
36002;DHT22;22070;50.922;5.430;2023-09-19T13:57:11;20.70;99.90
36002;DHT22;22070;50.922;5.430;2023-09-19T13:59:37;20.80;99.90
36002;DHT22;22070;50.922;5.430;2023-09-19T14:02:03;21.00;99.90
36002;DHT22;22070;50.922;5.430;2023-09-19T14:04:29;21.10;99.90
36002;DHT22;22070;50.922;5.430;2023-09-19T14:06:57;21.00;99.90
36002;DHT22;22070;50.922;5.430;2023-09-19T14:09:23;21.00;99.90
36002;DHT22;22070;50.922;5.430;2023-09-19T14:11:50;21.00;99.90
36002;DHT22;22070;50.922;5.430;2023-09-19T14:14:21;21.00;99.90
36002;DHT22;22070;50.922;5.430;2023-09-19T14:16:49;20.90;99.90
36002;DHT22;22070;50.922;5.430;2023-09-19T14:19:15;20.70;99.90
36002;DHT22;22070;50.922;5.430;2023-09-19T14:21:42;20.50;99.90
36002;DHT22;22070;50.922;5.430;2023-09-19T14:24:08;20.50;99.90
36002;DHT22;22070;50.922;5.430;2023-09-19T14:26:35;20.50;99.90
36002;DHT22;22070;50.922;5.430;2023-09-19T14:29:00;20.40;99.90
36002;DHT22;22070;50.922;5.430;2023-09-19T14:31:26;20.60;99.90
36002;DHT22;22070;50.922;5.430;2023-09-19T14:33:56;20.70;99.90
36002;DHT22;22070;50.922;5.430;2023-09-19T14:36:22;20.50;99.90
36002;DHT22;22070;50.922;5.430;2023-09-19T14:38:52;20.40;99.90
36002;DHT22;22070;50.922;5.430;2023-09-19T14:41:19;20.20;99.90
36002;DHT22;22070;50.922;5.430;2023-09-19T14:43:45;20.30;99.90
36002;DHT22;22070;50.922;5.430;2023-09-19T14:46:10;20.40;99.90
36002;DHT22;22070;50.922;5.430;2023-09-19T14:48:36;20.40;99.90
36002;DHT22;22070;50.922;5.430;2023-09-19T14:51:03;20.40;99.90
36002;DHT22;22070;50.922;5.430;2023-09-19T14:53:29;20.30;99.90
36002;DHT22;22070;50.922;5.430;2023-09-19T14:55:55;20.50;99.90
36002;DHT22;22070;50.922;5.430;2023-09-19T14:58:21;20.40;99.90
36002;DHT22;22070;50.922;5.430;2023-09-19T15:00:47;20.40;99.90
36002;DHT22;22070;50.922;5.430;2023-09-19T15:03:13;20.60;99.90
36002;DHT22;22070;50.922;5.430;2023-09-19T15:05:41;20.50;99.90
36002;DHT22;22070;50.922;5.430;2023-09-19T15:08:07;20.50;99.90
36002;DHT22;22070;50.922;5.430;2023-09-19T15:10:32;20.60;99.90
36002;DHT22;22070;50.922;5.430;2023-09-19T15:12:58;20.40;99.90
36002;DHT22;22070;50.922;5.430;2023-09-19T15:15:23;20.40;99.90
36002;DHT22;22070;50.922;5.430;2023-09-19T15:17:49;20.60;99.90
36002;DHT22;22070;50.922;5.430;2023-09-19T15:20:15;20.70;99.90
36002;DHT22;22070;50.922;5.430;2023-09-19T15:22:40;20.60;99.90
36002;DHT22;22070;50.922;5.430;2023-09-19T15:25:07;20.60;99.90
36002;DHT22;22070;50.922;5.430;2023-09-19T15:27:33;20.50;99.90
36002;DHT22;22070;50.922;5.430;2023-09-19T15:30:02;20.60;99.90
36002;DHT22;22070;50.922;5.430;2023-09-19T15:32:28;20.50;99.90
36002;DHT22;22070;50.922;5.430;2023-09-19T15:34:54;20.50;99.90
36002;DHT22;22070;50.922;5.430;2023-09-19T15:37:20;20.50;99.90
36002;DHT22;22070;50.922;5.430;2023-09-19T15:39:46;20.50;99.90
36002;DHT22;22070;50.922;5.430;2023-09-19T15:42:12;20.40;99.90
36002;DHT22;22070;50.922;5.430;2023-09-19T15:44:38;20.40;99.90
36002;DHT22;22070;50.922;5.430;2023-09-19T15:47:04;20.30;99.90
36002;DHT22;22070;50.922;5.430;2023-09-19T15:49:30;20.40;99.90
36002;DHT22;22070;50.922;5.430;2023-09-19T15:51:55;20.40;99.90
36002;DHT22;22070;50.922;5.430;2023-09-19T15:54:21;20.40;99.90
36002;DHT22;22070;50.922;5.430;2023-09-19T15:56:47;20.50;99.90
36002;DHT22;22070;50.922;5.430;2023-09-19T15:59:14;20.40;99.90
36002;DHT22;22070;50.922;5.430;2023-09-19T16:01:44;20.20;99.90
36002;DHT22;22070;50.922;5.430;2023-09-19T16:04:11;20.20;99.90
36002;DHT22;22070;50.922;5.430;2023-09-19T16:06:38;20.10;99.90
36002;DHT22;22070;50.922;5.430;2023-09-19T16:09:04;20.10;99.90
36002;DHT22;22070;50.922;5.430;2023-09-19T16:11:33;20.00;99.90
36002;DHT22;22070;50.922;5.430;2023-09-19T16:13:59;19.90;99.90
36002;DHT22;22070;50.922;5.430;2023-09-19T16:16:26;19.90;99.90
36002;DHT22;22070;50.922;5.430;2023-09-19T16:19:00;19.90;99.90
36002;DHT22;22070;50.922;5.430;2023-09-19T16:21:28;20.00;99.90
36002;DHT22;22070;50.922;5.430;2023-09-19T16:23:56;20.00;99.90
36002;DHT22;22070;50.922;5.430;2023-09-19T16:26:22;20.00;99.90
36002;DHT22;22070;50.922;5.430;2023-09-19T16:28:54;19.90;99.90